Time;durP1;ratioP1;P1;durP2;ratioP2;P2;SDS_P1;SDS_P2;PMS_P1;PMS_P2;Temp;Humidity;BMP_temperature;BMP_pressure;BME280_temperature;BME280_humidity;BME280_pressure;Samples;Min_cycle;Max_cycle;Signal;HPM_P1;HPM_P2
2023/01/02 00:01:05;;;;;;;115.78;54.45;;;;;;;;;;5037107;28;20029;-76
2023/01/02 00:03:31;;;;;;;103.47;48.45;;;;;;;;;;5036442;28;20035;-77
2023/01/02 00:05:56;;;;;;;93.07;41.80;;;;;;;;;;5039353;28;20465;-77
2023/01/02 00:08:22;;;;;;;107.38;48.72;;;;;;;;;;5038865;28;20454;-77
2023/01/02 00:10:47;;;;;;;108.80;48.47;;;;;;;;;;5006703;28;20033;-76
2023/01/02 00:13:13;;;;;;;106.72;48.75;;;;;;;;;;5040955;28;20041;-79
2023/01/02 00:15:38;;;;;;;109.63;49.33;;;;;;;;;;5036215;28;20037;-77
2023/01/02 00:18:04;;;;;;;95.57;43.05;;;;;;;;;;5035923;28;20038;-78
2023/01/02 00:20:29;;;;;;;86.10;40.92;;;;;;;;;;5018471;28;20116;-77
2023/01/02 00:22:56;;;;;;;84.53;38.45;;;;;;;;;;5034793;28;20462;-77
2023/01/02 00:25:21;;;;;;;83.50;37.00;;;;;;;;;;5018483;28;20037;-77
2023/01/02 00:27:47;;;;;;;72.32;33.00;;;;;;;;;;5018362;28;20123;-78
2023/01/02 00:30:12;;;;;;;71.65;31.00;;;;;;;;;;5035401;28;20057;-78
2023/01/02 00:32:38;;;;;;;70.32;32.97;;;;;;;;;;5018142;28;20102;-78
2023/01/02 00:35:05;;;;;;;68.03;30.88;;;;;;;;;;5035648;28;20033;-76
2023/01/02 00:37:31;;;;;;;67.35;33.25;;;;;;;;;;5035956;28;20049;-78
2023/01/02 00:39:56;;;;;;;64.70;29.33;;;;;;;;;;5035789;28;20060;-77
2023/01/02 00:42:21;;;;;;;59.90;27.63;;;;;;;;;;5035627;28;20021;-78
2023/01/02 00:44:47;;;;;;;56.53;26.90;;;;;;;;;;5035599;28;20450;-77
2023/01/02 00:47:12;;;;;;;57.00;26.25;;;;;;;;;;5035800;28;20021;-76
2023/01/02 00:49:38;;;;;;;48.92;23.52;;;;;;;;;;5034373;28;20481;-77
2023/01/02 00:52:03;;;;;;;51.53;23.60;;;;;;;;;;5034265;28;20160;-77
2023/01/02 00:54:28;;;;;;;49.03;22.17;;;;;;;;;;5035334;28;20021;-77
2023/01/02 00:56:54;;;;;;;46.50;21.92;;;;;;;;;;5017973;28;20037;-77
2023/01/02 00:59:19;;;;;;;52.78;24.27;;;;;;;;;;5035287;28;20029;-77
2023/01/02 01:01:45;;;;;;;53.50;27.15;;;;;;;;;;5035902;28;20044;-77
2023/01/02 01:04:10;;;;;;;54.30;27.23;;;;;;;;;;5021466;28;20072;-77
2023/01/02 01:06:36;;;;;;;56.42;27.05;;;;;;;;;;5041366;28;20042;-77
2023/01/02 01:09:01;;;;;;;54.28;25.17;;;;;;;;;;5039439;28;20040;-77
2023/01/02 01:11:27;;;;;;;53.80;25.33;;;;;;;;;;5034736;28;20030;-77
2023/01/02 01:13:52;;;;;;;53.10;23.95;;;;;;;;;;5034990;28;20032;-76
2023/01/02 01:16:18;;;;;;;45.30;22.88;;;;;;;;;;5035595;28;20057;-77
2023/01/02 01:18:44;;;;;;;50.05;24.67;;;;;;;;;;5037276;28;20036;-77
2023/01/02 01:21:17;;;;;;;49.80;23.25;;;;;;;;;;5025188;28;20491;-77
2023/01/02 01:23:43;;;;;;;40.17;21.55;;;;;;;;;;5023698;28;20033;-77
2023/01/02 01:26:10;;;;;;;48.80;23.25;;;;;;;;;;5023761;28;20168;-77
2023/01/02 01:28:36;;;;;;;50.10;24.20;;;;;;;;;;5037685;28;20021;-77
2023/01/02 01:31:05;;;;;;;52.03;23.90;;;;;;;;;;5050683;28;20063;-78
2023/01/02 01:33:31;;;;;;;53.17;23.70;;;;;;;;;;5055109;28;20036;-76
2023/01/02 01:36:06;;;;;;;45.38;23.02;;;;;;;;;;5054747;28;20033;-78
2023/01/02 01:38:31;;;;;;;49.20;22.77;;;;;;;;;;5053062;28;20067;-78
2023/01/02 01:40:57;;;;;;;45.88;22.13;;;;;;;;;;5036766;28;20072;-78
2023/01/02 01:43:51;;;;;;;47.40;21.20;;;;;;;;;;5053368;28;20037;-78
2023/01/02 01:46:36;;;;;;;45.28;20.80;;;;;;;;;;5036537;28;20025;-76
2023/01/02 01:49:08;;;;;;;47.83;21.88;;;;;;;;;;5036758;28;20202;-78
2023/01/02 01:51:37;;;;;;;43.78;22.50;;;;;;;;;;5038483;28;20123;-78
2023/01/02 01:54:06;;;;;;;52.42;24.35;;;;;;;;;;5059985;28;20025;-76
2023/01/02 01:56:33;;;;;;;43.80;22.73;;;;;;;;;;5060468;28;20068;-77
2023/01/02 01:59:02;;;;;;;49.53;25.10;;;;;;;;;;5059255;28;20111;-77
2023/01/02 02:01:27;;;;;;;63.72;30.95;;;;;;;;;;5038546;28;20045;-77
2023/01/02 02:03:53;;;;;;;52.15;25.10;;;;;;;;;;5036719;28;20037;-77
2023/01/02 02:06:18;;;;;;;47.50;23.52;;;;;;;;;;5035958;28;20116;-78
2023/01/02 02:09:18;;;;;;;49.80;25.00;;;;;;;;;;5052851;28;20024;-78
2023/01/02 02:11:43;;;;;;;45.92;23.88;;;;;;;;;;4993790;28;20544;-78
2023/01/02 02:14:09;;;;;;;55.05;24.45;;;;;;;;;;5052703;28;20040;-78
2023/01/02 02:16:55;;;;;;;51.55;24.80;;;;;;;;;;5054177;28;20056;-77
2023/01/02 02:19:33;;;;;;;51.10;25.67;;;;;;;;;;5036085;28;20373;-77
2023/01/02 02:22:04;;;;;;;50.67;25.48;;;;;;;;;;5053883;28;20029;-77
2023/01/02 02:24:48;;;;;;;49.90;25.23;;;;;;;;;;5054136;28;20043;-77
2023/01/02 02:27:50;;;;;;;50.53;25.60;;;;;;;;;;5054205;28;20025;-78
2023/01/02 02:30:22;;;;;;;53.85;26.50;;;;;;;;;;5026718;28;20433;-78
2023/01/02 02:32:58;;;;;;;55.05;26.60;;;;;;;;;;5032823;28;20363;-78
2023/01/02 02:35:29;;;;;;;57.60;27.52;;;;;;;;;;5016030;28;20029;-78
2023/01/02 02:38:04;;;;;;;57.17;28.65;;;;;;;;;;5034260;28;20041;-78
2023/01/02 02:40:51;;;;;;;62.22;28.35;;;;;;;;;;5016340;28;20033;-77
2023/01/02 02:43:18;;;;;;;58.50;27.35;;;;;;;;;;5016091;28;20022;-78
2023/01/02 02:46:05;;;;;;;54.40;26.45;;;;;;;;;;5016461;28;20366;-78
2023/01/02 02:48:30;;;;;;;61.65;29.42;;;;;;;;;;5033902;28;20439;-78
2023/01/02 02:51:00;;;;;;;64.32;31.23;;;;;;;;;;5033985;28;20044;-77
2023/01/02 02:53:41;;;;;;;64.45;30.70;;;;;;;;;;5033911;28;20029;-77
2023/01/02 02:56:06;;;;;;;64.30;31.30;;;;;;;;;;5017670;28;20061;-77
2023/01/02 02:58:32;;;;;;;67.65;31.48;;;;;;;;;;5016336;28;20156;-77
2023/01/02 03:01:10;;;;;;;64.43;33.33;;;;;;;;;;5032347;28;20175;-78
2023/01/02 03:03:35;;;;;;;67.75;33.30;;;;;;;;;;5016627;28;20053;-78
2023/01/02 03:06:16;;;;;;;62.15;30.17;;;;;;;;;;5016030;28;20051;-78
2023/01/02 03:08:50;;;;;;;;;;;;;;;;;;5033949;28;20079;-78
2023/01/02 03:11:16;;;;;;;56.05;28.08;;;;;;;;;;5033525;28;19913;-78
2023/01/02 03:14:02;;;;;;;60.03;28.35;;;;;;;;;;5034041;28;20029;-78
2023/01/02 03:16:38;;;;;;;64.82;29.02;;;;;;;;;;5000511;28;20025;-77
2023/01/02 03:19:04;;;;;;;57.83;27.55;;;;;;;;;;5019679;28;20029;-77
2023/01/02 03:21:43;;;;;;;70.38;30.38;;;;;;;;;;5037341;28;20124;-77
2023/01/02 03:24:10;;;;;;;69.57;29.50;;;;;;;;;;5020106;28;20033;-77
2023/01/02 03:26:38;;;;;;;67.15;29.63;;;;;;;;;;5019358;28;20276;-77
2023/01/02 03:29:08;;;;;;;63.53;30.40;;;;;;;;;;5003311;28;20116;-77
2023/01/02 03:31:35;;;;;;;65.28;29.75;;;;;;;;;;5039504;28;20119;-78
2023/01/02 03:34:05;;;;;;;73.32;30.75;;;;;;;;;;5057017;28;20119;-78
2023/01/02 03:36:30;;;;;;;69.18;30.35;;;;;;;;;;5039789;28;20334;-78
2023/01/02 03:39:11;;;;;;;67.07;30.75;;;;;;;;;;5055690;28;20029;-77
2023/01/02 03:42:02;;;;;;;78.03;31.42;;;;;;;;;;5039070;28;20048;-78
2023/01/02 03:44:32;;;;;;;64.95;30.23;;;;;;;;;;5057943;28;20029;-78
2023/01/02 03:47:07;;;;;;;69.32;31.70;;;;;;;;;;5039384;28;20037;-78
2023/01/02 03:49:36;;;;;;;80.18;36.40;;;;;;;;;;5039019;28;20082;-78
2023/01/02 03:52:01;;;;;;;80.97;41.13;;;;;;;;;;5055311;28;20040;-77
2023/01/02 03:54:27;;;;;;;92.88;46.00;;;;;;;;;;5055375;28;20033;-78
2023/01/02 03:56:56;;;;;;;82.18;39.90;;;;;;;;;;5056647;28;20035;-78
2023/01/02 03:59:37;;;;;;;86.13;41.03;;;;;;;;;;5038755;28;20033;-77
2023/01/02 04:02:29;;;;;;;87.10;41.17;;;;;;;;;;5056531;28;20045;-78
2023/01/02 04:05:00;;;;;;;83.15;39.78;;;;;;;;;;5056450;28;20438;-77
2023/01/02 04:07:28;;;;;;;89.28;40.85;;;;;;;;;;5021545;28;20064;-78
2023/01/02 04:09:56;;;;;;;93.32;42.78;;;;;;;;;;5038695;28;20052;-78
2023/01/02 04:12:22;;;;;;;81.68;38.88;;;;;;;;;;5038621;28;20064;-78
2023/01/02 04:15:08;;;;;;;85.03;43.53;;;;;;;;;;5038847;28;20051;-77
2023/01/02 04:17:43;;;;;;;97.75;50.30;;;;;;;;;;5057309;28;20036;-78
2023/01/02 04:20:11;;;;;;;89.28;46.60;;;;;;;;;;5038338;28;20083;-77
2023/01/02 04:22:49;;;;;;;89.43;44.72;;;;;;;;;;5038504;28;20036;-77
2023/01/02 04:25:16;;;;;;;80.22;39.58;;;;;;;;;;5038885;28;20033;-78
2023/01/02 04:27:58;;;;;;;77.35;37.92;;;;;;;;;;5055975;28;20037;-77
2023/01/02 04:30:25;;;;;;;74.55;37.58;;;;;;;;;;5037984;28;20056;-77
2023/01/02 04:32:51;;;;;;;81.75;39.83;;;;;;;;;;5055052;28;20029;-78
2023/01/02 04:35:19;;;;;;;87.68;43.40;;;;;;;;;;5071793;28;20172;-77
2023/01/02 04:37:44;;;;;;;89.03;46.17;;;;;;;;;;5046481;28;20029;-76
2023/01/02 04:40:24;;;;;;;93.60;48.25;;;;;;;;;;5063320;28;20064;-77
2023/01/02 04:42:50;;;;;;;96.20;50.53;;;;;;;;;;5071521;28;20047;-77
2023/01/02 04:45:16;;;;;;;95.63;49.90;;;;;;;;;;5055545;28;20024;-78
2023/01/02 04:47:41;;;;;;;95.82;49.83;;;;;;;;;;5054568;28;20029;-77
2023/01/02 04:50:07;;;;;;;98.85;50.05;;;;;;;;;;5055408;28;20031;-77
2023/01/02 04:52:33;;;;;;;103.25;51.75;;;;;;;;;;5055480;28;20033;-77
2023/01/02 04:54:58;;;;;;;89.70;46.58;;;;;;;;;;5055517;28;20102;-77
2023/01/02 04:57:24;;;;;;;97.38;52.58;;;;;;;;;;5055319;28;20338;-78
2023/01/02 04:59:50;;;;;;;95.25;51.33;;;;;;;;;;5055553;28;20029;-76
2023/01/02 05:02:15;;;;;;;94.18;49.72;;;;;;;;;;5053973;28;20037;-77
2023/01/02 05:04:41;;;;;;;94.72;49.47;;;;;;;;;;5055099;28;20041;-77
2023/01/02 05:07:07;;;;;;;95.35;51.25;;;;;;;;;;5058604;28;20032;-77
2023/01/02 05:09:32;;;;;;;96.18;51.25;;;;;;;;;;5067058;28;20039;-77
2023/01/02 05:11:58;;;;;;;98.88;53.20;;;;;;;;;;5077847;28;20033;-77
2023/01/02 05:14:23;;;;;;;97.65;51.42;;;;;;;;;;5055207;28;20045;-76
2023/01/02 05:16:49;;;;;;;93.85;51.03;;;;;;;;;;5070267;28;20044;-77
2023/01/02 05:19:14;;;;;;;96.32;50.78;;;;;;;;;;5070533;28;20037;-76
2023/01/02 05:24:25;;;;;;;97.85;49.47;;;;;;;;;;5054709;28;20112;-77
2023/01/02 05:26:50;;;;;;;98.90;50.20;;;;;;;;;;5053423;28;20028;-77
2023/01/02 05:29:16;;;;;;;113.38;56.28;;;;;;;;;;5068951;28;20036;-77
2023/01/02 05:31:41;;;;;;;110.95;56.67;;;;;;;;;;5035108;28;20033;-77
2023/01/02 05:34:11;;;;;;;105.82;53.90;;;;;;;;;;5016597;28;20095;-76
2023/01/02 05:36:37;;;;;;;115.47;55.83;;;;;;;;;;5033756;28;20096;-76
2023/01/02 05:39:11;;;;;;;101.38;51.40;;;;;;;;;;5016825;28;20029;-76
2023/01/02 05:41:38;;;;;;;109.78;53.88;;;;;;;;;;5033536;28;20033;-76
2023/01/02 05:44:04;;;;;;;99.50;48.90;;;;;;;;;;5033471;28;20029;-77
2023/01/02 05:46:30;;;;;;;93.40;46.10;;;;;;;;;;5034671;28;20029;-77
2023/01/02 05:48:55;;;;;;;93.75;47.08;;;;;;;;;;5034427;28;20048;-75
2023/01/02 05:51:21;;;;;;;91.07;46.00;;;;;;;;;;5034358;28;20048;-75
2023/01/02 05:53:46;;;;;;;93.22;46.83;;;;;;;;;;5034784;28;20426;-76
2023/01/02 05:56:13;;;;;;;90.38;45.53;;;;;;;;;;5034567;28;20517;-76
2023/01/02 05:58:40;;;;;;;90.90;44.85;;;;;;;;;;5016669;28;20061;-75
2023/01/02 06:01:13;;;;;;;90.72;45.70;;;;;;;;;;5034403;28;20704;-76
2023/01/02 06:03:39;;;;;;;97.95;46.67;;;;;;;;;;5033965;28;20107;-76
2023/01/02 06:06:09;;;;;;;92.57;47.20;;;;;;;;;;5032933;28;20091;-76
2023/01/02 06:08:34;;;;;;;101.15;49.15;;;;;;;;;;5032908;28;20117;-76
2023/01/02 06:11:00;;;;;;;99.97;49.75;;;;;;;;;;5016336;28;20053;-76
2023/01/02 06:13:28;;;;;;;92.18;48.03;;;;;;;;;;5033039;28;20038;-78
2023/01/02 06:15:54;;;;;;;81.82;43.03;;;;;;;;;;5000355;28;20047;-77
2023/01/02 06:18:20;;;;;;;92.95;48.28;;;;;;;;;;5016603;28;20030;-78
2023/01/02 06:20:46;;;;;;;88.50;45.80;;;;;;;;;;5017765;28;20045;-78
2023/01/02 06:23:11;;;;;;;90.70;46.58;;;;;;;;;;5016862;28;20056;-79
2023/01/02 06:25:37;;;;;;;85.63;45.67;;;;;;;;;;5033781;28;20030;-78
2023/01/02 06:28:03;;;;;;;90.57;46.88;;;;;;;;;;5032982;28;20403;-77
2023/01/02 06:30:28;;;;;;;97.47;49.72;;;;;;;;;;5016514;28;20072;-77
2023/01/02 06:32:55;;;;;;;119.95;54.30;;;;;;;;;;5016376;28;20025;-79
2023/01/02 06:35:20;;;;;;;117.65;55.95;;;;;;;;;;5032358;28;20032;-78
2023/01/02 06:37:46;;;;;;;109.60;52.13;;;;;;;;;;5033899;28;20124;-78
2023/01/02 06:40:11;;;;;;;97.85;49.47;;;;;;;;;;5049213;28;20370;-78
2023/01/02 06:42:37;;;;;;;108.72;52.72;;;;;;;;;;5016353;28;20030;-77
2023/01/02 06:45:03;;;;;;;105.93;52.03;;;;;;;;;;5016337;28;20034;-78
2023/01/02 06:47:28;;;;;;;109.97;54.13;;;;;;;;;;5033591;28;20039;-78
2023/01/02 06:49:56;;;;;;;132.23;68.10;;;;;;;;;;5033878;28;20022;-78
2023/01/02 06:52:22;;;;;;;120.47;58.40;;;;;;;;;;5035851;28;20415;-76
2023/01/02 06:54:47;;;;;;;115.45;58.53;;;;;;;;;;5020148;28;20171;-77
2023/01/02 06:57:13;;;;;;;145.88;78.65;;;;;;;;;;5037791;28;20032;-77
2023/01/02 06:59:38;;;;;;;142.20;73.50;;;;;;;;;;5037558;28;20124;-78
2023/01/02 07:02:04;;;;;;;130.32;69.22;;;;;;;;;;5020258;28;20072;-77
2023/01/02 07:04:29;;;;;;;124.18;62.30;;;;;;;;;;5037732;28;20040;-77
2023/01/02 07:06:55;;;;;;;124.18;64.15;;;;;;;;;;5037526;28;20052;-77
2023/01/02 07:09:21;;;;;;;212.70;102.03;;;;;;;;;;5037264;28;20124;-77
2023/01/02 07:11:46;;;;;;;165.13;81.20;;;;;;;;;;5038252;28;20029;-79
2023/01/02 07:14:11;;;;;;;136.40;68.07;;;;;;;;;;5036916;28;20442;-78
2023/01/02 07:16:37;;;;;;;141.07;70.00;;;;;;;;;;5019063;28;20041;-76
2023/01/02 07:19:02;;;;;;;144.32;71.75;;;;;;;;;;5037757;28;20041;-77
2023/01/02 07:21:28;;;;;;;144.48;71.47;;;;;;;;;;5037623;28;20434;-78
2023/01/02 07:23:54;;;;;;;137.13;70.22;;;;;;;;;;5037380;28;20351;-77
2023/01/02 07:26:20;;;;;;;131.10;67.18;;;;;;;;;;5037432;28;20087;-78
2023/01/02 07:28:46;;;;;;;127.47;64.45;;;;;;;;;;5037360;28;20474;-79
2023/01/02 07:31:13;;;;;;;148.88;78.22;;;;;;;;;;5050014;28;20072;-77
2023/01/02 07:33:40;;;;;;;134.18;71.47;;;;;;;;;;5057637;28;20207;-77
2023/01/02 07:36:07;;;;;;;135.02;73.50;;;;;;;;;;5056805;28;20139;-78
2023/01/02 07:38:33;;;;;;;151.90;82.95;;;;;;;;;;5055962;28;20029;-78
2023/01/02 07:40:58;;;;;;;153.13;81.75;;;;;;;;;;5038951;28;20029;-78
2023/01/02 07:43:23;;;;;;;157.32;81.68;;;;;;;;;;5056530;28;20033;-78
2023/01/02 07:45:49;;;;;;;142.93;75.65;;;;;;;;;;5056670;28;20068;-78
2023/01/02 07:48:14;;;;;;;145.30;76.93;;;;;;;;;;5039534;28;20132;-78
2023/01/02 07:50:40;;;;;;;145.35;76.03;;;;;;;;;;5040452;28;20037;-77
2023/01/02 07:53:05;;;;;;;145.98;80.32;;;;;;;;;;5045126;28;20033;-78
2023/01/02 07:55:31;;;;;;;242.68;126.72;;;;;;;;;;5061892;28;20039;-78
2023/01/02 07:57:56;;;;;;;183.50;99.60;;;;;;;;;;5056529;28;20037;-78
2023/01/02 08:00:22;;;;;;;187.75;97.65;;;;;;;;;;5056861;28;20175;-78
2023/01/02 08:02:48;;;;;;;171.18;90.63;;;;;;;;;;5056444;28;20107;-78
2023/01/02 08:05:15;;;;;;;144.07;79.40;;;;;;;;;;5056098;28;20025;-78
2023/01/02 08:07:42;;;;;;;143.30;79.03;;;;;;;;;;5038701;28;20032;-78
2023/01/02 08:10:07;;;;;;;137.82;74.97;;;;;;;;;;5039245;28;20033;-77
2023/01/02 08:12:33;;;;;;;129.35;70.00;;;;;;;;;;5039169;28;20036;-78
2023/01/02 08:14:58;;;;;;;96.82;51.83;;;;;;;;;;5057425;28;20036;-77
2023/01/02 08:17:23;;;;;;;87.95;47.67;;;;;;;;;;5023989;28;20085;-78
2023/01/02 08:19:49;;;;;;;91.40;48.97;;;;;;;;;;5074204;28;20087;-78
2023/01/02 08:22:14;;;;;;;93.25;52.67;;;;;;;;;;5041802;28;20033;-78
2023/01/02 08:24:40;;;;;;;97.63;54.53;;;;;;;;;;5062643;28;20597;-77
2023/01/02 08:27:05;;;;;;;111.32;59.20;;;;;;;;;;5059903;28;20068;-77
2023/01/02 08:29:31;;;;;;;120.43;64.57;;;;;;;;;;5053222;28;20144;-78
2023/01/02 08:31:57;;;;;;;124.47;68.90;;;;;;;;;;5034855;28;20064;-77
2023/01/02 08:34:23;;;;;;;125.18;66.80;;;;;;;;;;5036121;28;20037;-77
2023/01/02 08:36:48;;;;;;;135.65;70.47;;;;;;;;;;5034975;28;20121;-77
2023/01/02 08:39:14;;;;;;;125.45;69.03;;;;;;;;;;5035935;28;20029;-77
2023/01/02 08:41:39;;;;;;;120.93;66.40;;;;;;;;;;5018115;28;20025;-77
2023/01/02 08:44:05;;;;;;;115.45;62.00;;;;;;;;;;5018156;28;20033;-77
2023/01/02 08:46:31;;;;;;;111.53;60.15;;;;;;;;;;5034956;28;20033;-78
2023/01/02 08:48:57;;;;;;;103.25;54.63;;;;;;;;;;5018337;28;20035;-76
2023/01/02 08:51:23;;;;;;;81.55;43.55;;;;;;;;;;5035939;28;20030;-78
2023/01/02 08:53:48;;;;;;;72.88;37.75;;;;;;;;;;5034642;28;20394;-77
2023/01/02 08:56:20;;;;;;;66.35;33.17;;;;;;;;;;5017582;28;20041;-77
2023/01/02 08:58:56;;;;;;;52.33;29.15;;;;;;;;;;5035634;28;20025;-77
2023/01/02 09:01:22;;;;;;;42.17;22.60;;;;;;;;;;5035532;28;20033;-75
2023/01/02 09:03:49;;;;;;;45.92;27.20;;;;;;;;;;5035173;28;20061;-76
2023/01/02 09:06:14;;;;;;;46.67;26.38;;;;;;;;;;5035555;28;20044;-76
2023/01/02 09:08:40;;;;;;;45.15;26.10;;;;;;;;;;5035649;28;20136;-77
2023/01/02 09:11:13;;;;;;;43.90;26.35;;;;;;;;;;5033959;28;20080;-77
2023/01/02 09:13:38;;;;;;;42.75;25.45;;;;;;;;;;5035600;28;20386;-77
2023/01/02 09:16:04;;;;;;;47.03;27.02;;;;;;;;;;5035149;28;20037;-77
2023/01/02 09:18:29;;;;;;;47.67;25.08;;;;;;;;;;5017540;28;20053;-76
2023/01/02 09:20:55;;;;;;;44.42;25.95;;;;;;;;;;5033979;28;20025;-77
2023/01/02 09:23:20;;;;;;;46.83;26.63;;;;;;;;;;5000903;28;20402;-78
2023/01/02 09:25:49;;;;;;;43.13;26.92;;;;;;;;;;5034823;28;20033;-77
2023/01/02 09:28:14;;;;;;;45.97;27.73;;;;;;;;;;5035086;28;20038;-77
2023/01/02 09:30:40;;;;;;;47.13;25.55;;;;;;;;;;5033694;28;20052;-76
2023/01/02 09:33:07;;;;;;;38.75;21.15;;;;;;;;;;5017166;28;20433;-77
2023/01/02 09:35:33;;;;;;;36.83;22.80;;;;;;;;;;5033286;28;20053;-77
2023/01/02 09:37:59;;;;;;;43.55;24.00;;;;;;;;;;5034696;28;20061;-78
2023/01/02 09:40:24;;;;;;;36.72;21.17;;;;;;;;;;5033347;28;20054;-77
2023/01/02 09:42:49;;;;;;;35.22;20.90;;;;;;;;;;5017069;28;20036;-77
2023/01/02 09:45:15;;;;;;;33.42;21.63;;;;;;;;;;5033124;28;20028;-77
2023/01/02 09:47:40;;;;;;;41.55;23.40;;;;;;;;;;5034399;28;20104;-76
2023/01/02 09:50:11;;;;;;;42.10;24.00;;;;;;;;;;5034869;28;20029;-75
2023/01/02 09:52:42;;;;;;;39.30;24.63;;;;;;;;;;5034692;28;20096;-77
2023/01/02 09:55:15;;;;;;;40.55;24.85;;;;;;;;;;5017107;28;20049;-77
2023/01/02 09:57:52;;;;;;;44.08;25.67;;;;;;;;;;5017100;28;20381;-76
2023/01/02 10:00:23;;;;;;;35.63;21.67;;;;;;;;;;5032936;28;20029;-77
2023/01/02 10:03:08;;;;;;;71.05;28.45;;;;;;;;;;5032956;28;20029;-78
2023/01/02 10:05:39;;;;;;;51.25;24.58;;;;;;;;;;5017804;28;20106;-76
2023/01/02 10:08:05;;;;;;;51.55;25.65;;;;;;;;;;5034053;28;20033;-78
2023/01/02 10:10:45;;;;;;;57.83;26.02;;;;;;;;;;5016468;28;20485;-78
2023/01/02 10:13:36;;;;;;;89.18;40.83;;;;;;;;;;5032923;28;20040;-77
2023/01/02 10:16:02;;;;;;;43.47;24.63;;;;;;;;;;5017557;28;20124;-77
2023/01/02 10:18:39;;;;;;;62.65;30.10;;;;;;;;;;5049348;28;20026;-78
2023/01/02 10:21:09;;;;;;;52.67;27.48;;;;;;;;;;5034006;28;20029;-77
2023/01/02 10:23:39;;;;;;;44.47;25.77;;;;;;;;;;5016746;28;20469;-77
2023/01/02 10:26:06;;;;;;;37.38;24.08;;;;;;;;;;5015983;28;20502;-77
2023/01/02 10:28:56;;;;;;;44.75;26.55;;;;;;;;;;5032665;28;20025;-78
2023/01/02 10:31:33;;;;;;;41.80;24.20;;;;;;;;;;5033993;28;20045;-78
2023/01/02 10:34:00;;;;;;;38.78;24.85;;;;;;;;;;5016684;28;20040;-77
2023/01/02 10:36:27;;;;;;;41.13;25.00;;;;;;;;;;5016284;28;20425;-78
2023/01/02 10:38:55;;;;;;;35.53;23.48;;;;;;;;;;5033749;28;20037;-77
2023/01/02 10:41:22;;;;;;;40.08;25.05;;;;;;;;;;5015972;28;20442;-77
2023/01/02 10:43:52;;;;;;;38.85;24.55;;;;;;;;;;5032895;28;20502;-77
2023/01/02 10:46:17;;;;;;;;;;;;;;;;;;5032914;28;20355;-78
2023/01/02 10:48:43;;;;;;;39.20;23.38;;;;;;;;;;5034312;28;19920;-77
2023/01/02 10:51:12;;;;;;;36.30;22.17;;;;;;;;;;5032836;28;20159;-77
2023/01/02 10:53:37;;;;;;;37.47;23.40;;;;;;;;;;5015867;28;20478;-77
2023/01/02 10:56:17;;;;;;;40.22;23.92;;;;;;;;;;5034064;28;20033;-77
2023/01/02 10:58:47;;;;;;;44.20;27.03;;;;;;;;;;5032929;28;20461;-76
2023/01/02 11:01:17;;;;;;;47.53;29.55;;;;;;;;;;5000188;28;20044;-77
2023/01/02 11:04:08;;;;;;;;;;;;;;;;;;5016525;28;20039;-77
2023/01/02 11:06:34;;;;;;;48.15;29.98;;;;;;;;;;5034373;28;19909;-77
2023/01/02 11:09:02;;;;;;;54.15;33.70;;;;;;;;;;5016107;28;20041;-77
2023/01/02 11:11:29;;;;;;;51.70;32.85;;;;;;;;;;5017505;28;20092;-76
2023/01/02 11:13:55;;;;;;;54.97;34.30;;;;;;;;;;5022659;28;20033;-76
2023/01/02 11:16:24;;;;;;;57.50;33.00;;;;;;;;;;5044717;28;20064;-77
2023/01/02 11:18:51;;;;;;;52.40;32.28;;;;;;;;;;5001811;28;20037;-76
2023/01/02 11:21:43;;;;;;;54.42;32.80;;;;;;;;;;5016736;28;20037;-76
2023/01/02 11:24:15;;;;;;;58.13;33.38;;;;;;;;;;5033904;28;20045;-76
2023/01/02 11:26:40;;;;;;;59.70;33.22;;;;;;;;;;5032784;28;20021;-77
2023/01/02 11:29:14;;;;;;;56.25;33.92;;;;;;;;;;5016722;28;20029;-77
2023/01/02 11:31:47;;;;;;;59.78;34.03;;;;;;;;;;5032455;28;20041;-77
2023/01/02 11:34:23;;;;;;;52.47;31.55;;;;;;;;;;5000063;28;20087;-77
2023/01/02 11:37:21;;;;;;;53.50;32.45;;;;;;;;;;5015934;28;20037;-77
2023/01/02 11:40:04;;;;;;;53.33;29.48;;;;;;;;;;5002867;28;20041;-77
2023/01/02 11:45:22;;;;;;;51.72;29.80;;;;;;;;;;5023560;28;20079;-76
2023/01/02 11:47:49;;;;;;;51.97;29.40;;;;;;;;;;5023657;28;20025;-76
2023/01/02 11:50:21;;;;;;;48.15;28.38;;;;;;;;;;5021982;28;20024;-77
2023/01/02 11:52:49;;;;;;;47.28;28.42;;;;;;;;;;5019446;28;20025;-76
2023/01/02 11:55:28;;;;;;;49.20;27.13;;;;;;;;;;5018834;28;20455;-77
2023/01/02 11:57:56;;;;;;;45.45;27.20;;;;;;;;;;5018751;28;20021;-77
2023/01/02 12:00:22;;;;;;;47.70;28.13;;;;;;;;;;5035518;28;20075;-76
2023/01/02 12:02:49;;;;;;;45.30;26.77;;;;;;;;;;5019280;28;20033;-75
2023/01/02 12:05:33;;;;;;;48.22;24.48;;;;;;;;;;5036356;28;20416;-78
2023/01/02 12:08:02;;;;;;;44.00;26.55;;;;;;;;;;5021170;28;20078;-78
2023/01/02 12:10:46;;;;;;;41.78;24.35;;;;;;;;;;5003248;28;20324;-77
2023/01/02 12:13:45;;;;;;;43.72;24.58;;;;;;;;;;5036685;28;20038;-77
2023/01/02 12:16:42;;;;;;;40.30;25.15;;;;;;;;;;5018810;28;20030;-77
2023/01/02 12:19:18;;;;;;;47.95;27.67;;;;;;;;;;5035676;28;20438;-77
2023/01/02 12:22:02;;;;;;;52.28;30.70;;;;;;;;;;5019445;28;20427;-78
2023/01/02 12:25:09;;;;;;;58.28;33.78;;;;;;;;;;5036123;28;20397;-78
2023/01/02 12:27:50;;;;;;;53.17;33.58;;;;;;;;;;5022933;28;20095;-77
2023/01/02 12:30:19;;;;;;;62.95;36.33;;;;;;;;;;5027607;28;20052;-77
2023/01/02 12:32:59;;;;;;;68.13;38.60;;;;;;;;;;5054730;28;20032;-78
2023/01/02 12:36:02;;;;;;;60.97;36.78;;;;;;;;;;5055585;28;20062;-78
2023/01/02 12:39:01;;;;;;;59.70;32.95;;;;;;;;;;5055936;28;20033;-78
2023/01/02 12:41:41;;;;;;;71.40;39.40;;;;;;;;;;5055513;28;20033;-78
2023/01/02 12:44:17;;;;;;;;;;;;;;;;;;5056362;28;20112;-78
2023/01/02 12:46:43;;;;;;;85.50;47.92;;;;;;;;;;5071352;28;19912;-75
2023/01/02 12:49:28;;;;;;;74.00;44.28;;;;;;;;;;5055098;28;20543;-77
2023/01/02 12:52:03;;;;;;;76.68;43.90;;;;;;;;;;5024223;28;20164;-78
2023/01/02 12:54:34;;;;;;;78.25;44.88;;;;;;;;;;5055558;28;20029;-78
2023/01/02 12:57:23;;;;;;;69.53;40.85;;;;;;;;;;5055523;28;20040;-78
2023/01/02 13:00:13;;;;;;;73.20;42.20;;;;;;;;;;5054220;28;20025;-77
2023/01/02 13:02:47;;;;;;;72.97;42.92;;;;;;;;;;5039443;28;20108;-78
2023/01/02 13:05:18;;;;;;;73.35;42.03;;;;;;;;;;5037809;28;20096;-78
2023/01/02 13:07:53;;;;;;;72.20;41.22;;;;;;;;;;5037710;28;20029;-77
2023/01/02 13:10:20;;;;;;;70.53;41.65;;;;;;;;;;5053901;28;20029;-77
2023/01/02 13:12:46;;;;;;;78.35;44.30;;;;;;;;;;5021044;28;20029;-77
2023/01/02 13:15:11;;;;;;;75.38;41.00;;;;;;;;;;5036908;28;20071;-77
2023/01/02 13:17:40;;;;;;;68.97;39.88;;;;;;;;;;5054814;28;20556;-78
2023/01/02 13:20:42;;;;;;;71.43;40.90;;;;;;;;;;5036942;28;20035;-78
2023/01/02 13:23:35;;;;;;;68.53;40.10;;;;;;;;;;5054890;28;20035;-78
2023/01/02 13:26:17;;;;;;;70.10;39.15;;;;;;;;;;5051754;28;20446;-78
2023/01/02 13:29:00;;;;;;;70.65;39.25;;;;;;;;;;5070526;28;20071;-78
2023/01/02 13:31:26;;;;;;;67.50;39.22;;;;;;;;;;5036210;28;20041;-78
2023/01/02 13:33:52;;;;;;;65.60;38.05;;;;;;;;;;5017004;28;20059;-78
2023/01/02 13:36:27;;;;;;;69.35;37.83;;;;;;;;;;5000584;28;20101;-78
2023/01/02 13:39:03;;;;;;;67.57;37.38;;;;;;;;;;5034926;28;20029;-77
2023/01/02 13:41:29;;;;;;;67.13;36.60;;;;;;;;;;5035047;28;20040;-78
2023/01/02 13:43:59;;;;;;;69.55;36.92;;;;;;;;;;5034874;28;20438;-77
2023/01/02 13:46:29;;;;;;;66.40;35.70;;;;;;;;;;5033234;28;20072;-78
2023/01/02 13:48:59;;;;;;;65.07;35.50;;;;;;;;;;5033219;28;20508;-78
2023/01/02 13:51:34;;;;;;;61.60;34.03;;;;;;;;;;5033328;28;20522;-78
2023/01/02 13:54:00;;;;;;;68.13;33.92;;;;;;;;;;5017163;28;20143;-77
2023/01/02 13:56:27;;;;;;;57.58;34.25;;;;;;;;;;5033254;28;20128;-78
2023/01/02 13:58:58;;;;;;;71.68;34.55;;;;;;;;;;5033345;28;20026;-77
2023/01/02 14:01:53;;;;;;;56.92;32.00;;;;;;;;;;5033265;28;20036;-77
2023/01/02 14:04:26;;;;;;;60.00;32.30;;;;;;;;;;5010934;28;20041;-78
2023/01/02 14:06:51;;;;;;;77.85;37.80;;;;;;;;;;5032959;28;20033;-78
2023/01/02 14:09:18;;;;;;;80.32;39.55;;;;;;;;;;5017081;28;20449;-78
2023/01/02 14:12:00;;;;;;;74.38;36.90;;;;;;;;;;5016821;28;20064;-79
2023/01/02 14:14:36;;;;;;;73.20;41.85;;;;;;;;;;5034151;28;20120;-76
2023/01/02 14:17:19;;;;;;;67.50;37.17;;;;;;;;;;5033936;28;20121;-76
2023/01/02 14:19:44;;;;;;;66.57;38.53;;;;;;;;;;5034138;28;20030;-77
2023/01/02 14:22:14;;;;;;;56.28;33.08;;;;;;;;;;5034239;28;20030;-75
2023/01/02 14:24:48;;;;;;;87.93;50.92;;;;;;;;;;4984361;28;20431;-77
2023/01/02 14:27:27;;;;;;;65.07;40.88;;;;;;;;;;5016376;28;20120;-78
2023/01/02 14:29:57;;;;;;;50.10;29.52;;;;;;;;;;5016306;28;20045;-79
2023/01/02 14:32:30;;;;;;;45.80;26.13;;;;;;;;;;5033116;28;20079;-77
2023/01/02 14:34:55;;;;;;;48.15;27.00;;;;;;;;;;5018119;28;20064;-77
2023/01/02 14:37:34;;;;;;;42.05;25.13;;;;;;;;;;5004501;28;20025;-76
2023/01/02 14:40:21;;;;;;;41.03;24.90;;;;;;;;;;5026032;28;20029;-77